Time,TemperatureF,DewpointF,PressureIn,WindDirection,WindDirectionDegrees,WindSpeedMPH,WindSpeedGustMPH,Humidity,HourlyPrecipIn,Conditions,Clouds,dailyrainin,SoftwareType,DateUTC
2016-02-14 00:04:00,23.0,9.6,30.43,NE,56,5.0,6.0,56,0.00,,,0.00,WUHU216DAVISVP2,2016-02-14 06:04:00,
2016-02-14 00:09:00,23.0,9.6,30.44,NNE,19,1.0,6.0,56,0.00,,,0.00,WUHU216DAVISVP2,2016-02-14 06:09:00,
2016-02-14 00:14:00,23.1,9.7,30.44,ENE,63,1.0,6.0,56,0.00,,,0.00,WUHU216DAVISVP2,2016-02-14 06:14:00,
2016-02-14 00:19:00,23.1,9.3,30.44,NNE,30,0.0,5.0,55,0.00,,,0.00,WUHU216DAVISVP2,2016-02-14 06:19:00,
2016-02-14 00:24:00,23.1,9.3,30.45,North,357,1.0,5.0,55,0.00,,,0.00,WUHU216DAVISVP2,2016-02-14 06:24:00,
2016-02-14 00:29:00,23.1,9.7,30.44,East,90,0.0,3.0,56,0.00,,,0.00,WUHU216DAVISVP2,2016-02-14 06:29:00,
2016-02-14 00:34:00,23.2,9.4,30.44,NE,52,3.0,4.0,55,0.00,,,0.00,WUHU216DAVISVP2,2016-02-14 06:34:00,
2016-02-14 00:39:00,23.2,9.8,30.43,NE,47,1.0,4.0,56,0.00,,,0.00,WUHU216DAVISVP2,2016-02-14 06:39:00,
2016-02-14 00:44:00,23.2,9.8,30.43,NNE,25,3.0,4.0,56,0.00,,,0.00,WUHU216DAVISVP2,2016-02-14 06:44:00,
2016-02-14 00:49:00,23.2,9.4,30.43,NE,51,4.0,7.0,55,0.00,,,0.00,WUHU216DAVISVP2,2016-02-14 06:49:00,
2016-02-14 00:54:00,23.2,9.4,30.42,SE,133,0.0,7.0,55,0.00,,,0.00,WUHU216DAVISVP2,2016-02-14 06:54:00,
2016-02-14 00:59:00,23.3,9.9,30.43,West,266,1.0,6.0,56,0.00,,,0.00,WUHU216DAVISVP2,2016-02-14 06:59:00,
2016-02-14 01:04:00,23.3,9.9,30.43,NE,39,2.0,6.0,56,0.00,,,0.00,WUHU216DAVISVP2,2016-02-14 07:04:00,
2016-02-14 01:09:00,23.3,9.5,30.44,ENE,67,2.0,4.0,55,0.00,,,0.00,WUHU216DAVISVP2,2016-02-14 07:09:00,
2016-02-14 01:19:00,23.3,9.5,30.44,SE,134,3.0,5.0,55,0.00,,,0.00,WUHU216DAVISVP2,2016-02-14 07:19:00,
2016-02-14 01:24:00,23.3,9.5,30.43,ESE,110,0.0,5.0,55,0.00,,,0.00,WUHU216DAVISVP2,2016-02-14 07:24:00,
2016-02-14 01:29:00,23.3,9.1,30.44,ENE,75,5.0,5.0,54,0.00,,,0.00,WUHU216DAVISVP2,2016-02-14 07:29:00,
2016-02-14 01:34:00,23.3,9.1,30.43,ENE,62,4.0,8.0,54,0.00,,,0.00,WUHU216DAVISVP2,2016-02-14 07:34:00,
2016-02-14 01:44:00,23.3,9.1,30.42,ENE,58,3.0,8.0,54,0.00,,,0.00,WUHU216DAVISVP2,2016-02-14 07:44:00,
2016-02-14 01:49:00,23.4,9.6,30.42,NE,44,4.0,8.0,55,0.00,,,0.00,WUHU216DAVISVP2,2016-02-14 07:49:00,
2016-02-14 01:54:00,23.3,9.1,30.42,NE,40,4.0,8.0,54,0.00,,,0.00,WUHU216DAVISVP2,2016-02-14 07:54:00,
2016-02-14 01:59:00,23.4,9.6,30.42,ENE,75,1.0,7.0,55,0.00,,,0.00,WUHU216DAVISVP2,2016-02-14 07:59:00,
2016-02-14 02:04:00,23.4,9.6,30.42,NE,55,4.0,7.0,55,0.00,,,0.00,WUHU216DAVISVP2,2016-02-14 08:04:00,
2016-02-14 02:09:00,23.4,9.6,30.41,NNE,19,1.0,6.0,55,0.00,,,0.00,WUHU216DAVISVP2,2016-02-14 08:09:00,
2016-02-14 02:14:00,23.4,10.0,30.41,NE,39,2.0,6.0,56,0.00,,,0.00,WUHU216DAVISVP2,2016-02-14 08:14:00,
2016-02-14 02:19:00,23.4,10.0,30.41,NE,46,1.0,5.0,56,0.00,,,0.00,WUHU216DAVISVP2,2016-02-14 08:19:00,
2016-02-14 02:24:00,23.5,9.7,30.41,NNE,33,2.0,5.0,55,0.00,,,0.00,WUHU216DAVISVP2,2016-02-14 08:24:00,
2016-02-14 02:29:00,23.4,9.6,30.40,East,87,2.0,7.0,55,0.00,,,0.00,WUHU216DAVISVP2,2016-02-14 08:29:00,
2016-02-14 02:34:00,23.4,10.0,30.40,ENE,74,3.0,7.0,56,0.00,,,0.00,WUHU216DAVISVP2,2016-02-14 08:34:00,
2016-02-14 02:39:00,23.4,9.6,30.40,ENE,63,5.0,7.0,55,0.00,,,0.00,WUHU216DAVISVP2,2016-02-14 08:39:00,
2016-02-14 02:49:00,23.4,10.0,30.40,ENE,70,3.0,7.0,56,0.00,,,0.00,WUHU216DAVISVP2,2016-02-14 08:49:00,
2016-02-14 02:54:00,23.4,9.6,30.40,NE,48,6.0,6.0,55,0.00,,,0.00,WUHU216DAVISVP2,2016-02-14 08:54:00,
2016-02-14 02:59:00,23.5,9.7,30.40,NE,56,3.0,7.0,55,0.00,,,0.00,WUHU216DAVISVP2,2016-02-14 08:59:00,
2016-02-14 03:04:00,23.5,10.1,30.40,NE,51,3.0,7.0,56,0.00,,,0.00,WUHU216DAVISVP2,2016-02-14 09:04:00,
2016-02-14 03:29:00,23.6,10.6,30.39,East,90,1.0,6.0,57,0.00,,,0.00,WUHU216DAVISVP2,2016-02-14 09:29:00,
2016-02-14 03:34:00,23.6,10.2,30.38,NE,41,5.0,6.0,56,0.00,,,0.00,WUHU216DAVISVP2,2016-02-14 09:34:00,
2016-02-14 03:39:00,23.7,10.3,30.39,NE,39,1.0,7.0,56,0.00,,,0.00,WUHU216DAVISVP2,2016-02-14 09:39:00,
2016-02-14 03:44:00,23.8,10.4,30.39,NNE,23,2.0,7.0,56,0.00,,,0.00,WUHU216DAVISVP2,2016-02-14 09:44:00,
2016-02-14 03:49:00,23.8,10.4,30.38,NE,47,2.0,6.0,56,0.00,,,0.00,WUHU216DAVISVP2,2016-02-14 09:49:00,
2016-02-14 03:54:00,23.8,10.0,30.39,ESE,118,0.0,7.0,55,0.00,,,0.00,WUHU216DAVISVP2,2016-02-14 09:54:00,
2016-02-14 03:59:00,23.8,10.4,30.40,NE,54,0.0,7.0,56,0.00,,,0.00,WUHU216DAVISVP2,2016-02-14 09:59:00,
2016-02-14 04:09:00,24.0,10.6,30.38,East,86,1.0,6.0,56,0.00,,,0.00,WUHU216DAVISVP2,2016-02-14 10:09:00,
2016-02-14 04:14:00,24.1,10.7,30.39,NE,39,5.0,5.0,56,0.00,,,0.00,WUHU216DAVISVP2,2016-02-14 10:14:00,
2016-02-14 04:24:00,23.3,9.5,30.38,NE,53,3.0,5.0,55,0.00,,,0.00,WUHU216DAVISVP2,2016-02-14 10:24:00,
2016-02-14 08:03:00,25.5,12.4,30.39,NE,41,2.0,3.0,57,0.00,,,0.00,WUHU216DAVISVP2,2016-02-14 14:03:00,
2016-02-14 08:08:00,25.5,12.0,30.39,NNE,32,2.0,3.0,56,0.00,,,0.00,WUHU216DAVISVP2,2016-02-14 14:08:00,
2016-02-14 08:13:00,25.6,12.1,30.39,North,8,3.0,4.0,56,0.00,,,0.00,WUHU216DAVISVP2,2016-02-14 14:13:00,
2016-02-14 08:18:00,25.7,12.2,30.39,NNE,27,2.0,6.0,56,0.00,,,0.00,WUHU216DAVISVP2,2016-02-14 14:18:00,
2016-02-14 08:23:00,25.7,11.7,30.39,North,356,2.0,6.0,55,0.00,,,0.00,WUHU216DAVISVP2,2016-02-14 14:23:00,
2016-02-14 08:28:00,25.8,12.7,30.39,NE,39,1.0,5.0,57,0.00,,,0.00,WUHU216DAVISVP2,2016-02-14 14:28:00,
2016-02-14 08:38:00,25.9,11.9,30.38,East,79,3.0,4.0,55,0.00,,,0.00,WUHU216DAVISVP2,2016-02-14 14:38:00,
2016-02-14 08:43:00,25.9,11.9,30.37,East,84,0.0,4.0,55,0.00,,,0.00,WUHU216DAVISVP2,2016-02-14 14:43:00,
2016-02-14 08:48:00,26.1,11.7,30.37,ESE,122,2.0,4.0,54,0.00,,,0.00,WUHU216DAVISVP2,2016-02-14 14:48:00,
2016-02-14 08:58:00,26.2,11.8,30.36,SE,125,1.0,4.0,54,0.00,,,0.00,WUHU216DAVISVP2,2016-02-14 14:58:00,
2016-02-14 09:03:00,26.3,11.5,30.36,NE,40,1.0,4.0,53,0.00,,,0.00,WUHU216DAVISVP2,2016-02-14 15:03:00,
2016-02-14 09:08:00,26.3,11.5,30.36,ENE,76,1.0,4.0,53,0.00,,,0.00,WUHU216DAVISVP2,2016-02-14 15:08:00,
2016-02-14 09:13:00,26.3,11.0,30.36,ENE,68,4.0,4.0,52,0.00,,,0.00,WUHU216DAVISVP2,2016-02-14 15:13:00,
2016-02-14 09:18:00,26.3,11.0,30.35,NE,41,4.0,7.0,52,0.00,,,0.00,WUHU216DAVISVP2,2016-02-14 15:18:00,
2016-02-14 09:23:00,26.2,11.4,30.35,ESE,108,3.0,7.0,53,0.00,,,0.00,WUHU216DAVISVP2,2016-02-14 15:23:00,
2016-02-14 09:28:00,26.2,11.4,30.35,SE,131,0.0,7.0,53,0.00,,,0.00,WUHU216DAVISVP2,2016-02-14 15:28:00,
2016-02-14 09:33:00,26.4,12.0,30.34,SE,145,1.0,6.0,54,0.00,,,0.00,WUHU216DAVISVP2,2016-02-14 15:33:00,
2016-02-14 09:38:00,26.5,11.2,30.33,ESE,110,4.0,7.0,52,0.00,,,0.00,WUHU216DAVISVP2,2016-02-14 15:38:00,
2016-02-14 09:48:00,26.8,11.9,30.33,SSE,156,5.0,8.0,53,0.00,,,0.00,WUHU216DAVISVP2,2016-02-14 15:48:00,
2016-02-14 09:58:00,27.1,11.8,30.32,SSE,158,4.0,8.0,52,0.00,,,0.00,WUHU216DAVISVP2,2016-02-14 15:58:00,
2016-02-14 10:03:00,27.3,12.0,30.32,SE,125,4.0,8.0,52,0.00,,,0.00,WUHU216DAVISVP2,2016-02-14 16:03:00,
2016-02-14 10:08:00,27.5,12.1,30.32,ESE,123,4.0,7.0,52,0.00,,,0.00,WUHU216DAVISVP2,2016-02-14 16:08:00,
2016-02-14 10:13:00,27.7,11.4,30.32,SE,143,6.0,8.0,50,0.00,,,0.00,WUHU216DAVISVP2,2016-02-14 16:13:00,
2016-02-14 10:18:00,27.7,12.3,30.31,SSE,156,2.0,8.0,52,0.00,,,0.00,WUHU216DAVISVP2,2016-02-14 16:18:00,
2016-02-14 10:23:00,27.9,11.6,30.31,SE,141,4.0,9.0,50,0.00,,,0.00,WUHU216DAVISVP2,2016-02-14 16:23:00,
2016-02-14 10:28:00,28.1,11.8,30.31,ESE,123,4.0,9.0,50,0.00,,,0.00,WUHU216DAVISVP2,2016-02-14 16:28:00,
2016-02-14 10:33:00,28.3,12.0,30.31,SE,138,2.0,9.0,50,0.00,,,0.00,WUHU216DAVISVP2,2016-02-14 16:33:00,
2016-02-14 10:38:00,28.5,12.1,30.31,SE,139,1.0,9.0,50,0.00,,,0.00,WUHU216DAVISVP2,2016-02-14 16:38:00,
2016-02-14 10:43:00,28.6,11.8,30.31,South,180,2.0,10.0,49,0.00,,,0.00,WUHU216DAVISVP2,2016-02-14 16:43:00,
2016-02-14 10:48:00,28.4,12.5,30.30,ESE,117,6.0,10.0,51,0.00,,,0.00,WUHU216DAVISVP2,2016-02-14 16:48:00,
2016-02-14 10:53:00,28.2,13.2,30.30,SE,139,3.0,10.0,53,0.00,,,0.00,WUHU216DAVISVP2,2016-02-14 16:53:00,
2016-02-14 10:58:00,28.2,13.2,30.30,SE,127,2.0,10.0,53,0.00,,,0.00,WUHU216DAVISVP2,2016-02-14 16:58:00,
2016-02-14 11:03:00,28.3,13.3,30.29,SE,136,2.0,9.0,53,0.00,,,0.00,WUHU216DAVISVP2,2016-02-14 17:03:00,
2016-02-14 11:13:00,28.6,12.7,30.29,SE,131,3.0,6.0,51,0.00,,,0.00,WUHU216DAVISVP2,2016-02-14 17:13:00,
2016-02-14 11:18:00,28.8,12.9,30.29,SE,133,1.0,6.0,51,0.00,,,0.00,WUHU216DAVISVP2,2016-02-14 17:18:00,
2016-02-14 11:23:00,28.9,13.4,30.29,ESE,112,1.0,6.0,52,0.00,,,0.00,WUHU216DAVISVP2,2016-02-14 17:23:00,
2016-02-14 11:28:00,29.1,14.1,30.28,ESE,102,0.0,6.0,53,0.00,,,0.00,WUHU216DAVISVP2,2016-02-14 17:28:00,
2016-02-14 11:38:00,29.2,14.2,30.27,ESE,106,1.0,5.0,53,0.00,,,0.00,WUHU216DAVISVP2,2016-02-14 17:38:00,
2016-02-14 11:43:00,29.2,14.2,30.29,SE,126,1.0,5.0,53,0.00,,,0.00,WUHU216DAVISVP2,2016-02-14 17:43:00,
2016-02-14 11:48:00,29.3,14.3,30.29,ESE,123,1.0,5.0,53,0.00,,,0.00,WUHU216DAVISVP2,2016-02-14 17:48:00,
2016-02-14 11:53:00,29.4,13.9,30.28,SE,138,1.0,4.0,52,0.00,,,0.00,WUHU216DAVISVP2,2016-02-14 17:53:00,
2016-02-14 11:58:00,29.5,14.9,30.28,ESE,110,2.0,4.0,54,0.00,,,0.00,WUHU216DAVISVP2,2016-02-14 17:58:00,
2016-02-14 12:03:00,29.4,14.8,30.27,ESE,110,2.0,4.0,54,0.00,,,0.00,WUHU216DAVISVP2,2016-02-14 18:03:00,
2016-02-14 12:13:00,29.5,15.3,30.27,SE,127,3.0,4.0,55,0.00,,,0.00,WUHU216DAVISVP2,2016-02-14 18:13:00,
2016-02-14 12:18:00,29.7,15.1,30.26,SSW,212,1.0,6.0,54,0.00,,,0.00,WUHU216DAVISVP2,2016-02-14 18:18:00,
2016-02-14 12:23:00,29.8,15.2,30.26,SSW,200,3.0,8.0,54,0.00,,,0.00,WUHU216DAVISVP2,2016-02-14 18:23:00,
2016-02-14 12:28:00,29.9,15.7,30.27,SSW,206,5.0,8.0,55,0.00,,,0.00,WUHU216DAVISVP2,2016-02-14 18:28:00,
2016-02-14 12:33:00,29.9,15.7,30.26,South,179,2.0,8.0,55,0.00,,,0.00,WUHU216DAVISVP2,2016-02-14 18:33:00,
2016-02-14 12:43:00,29.9,16.1,30.26,South,170,1.0,9.0,56,0.00,,,0.00,WUHU216DAVISVP2,2016-02-14 18:43:00,
2016-02-14 12:53:00,30.1,15.9,30.26,SE,144,6.0,10.0,55,0.00,,,0.00,WUHU216DAVISVP2,2016-02-14 18:53:00,